Airfield :
LOGIN :

Register | Disclaimer

   EN    FR    IT 

 










Legend :    VFR   Marginal VFR   IFR   Intensive IFR   Very Intensive IFR
Visi :
Ceiling :
>= 8 km
>= 3000ft
5 to 8 km
1000 to 3000 ft
1500m to 5 km
500 to 1000 ft
800 to 1500m
200 to 500 ft
< 800m
< 200 ft
Symbols :   Thunderstorms  Fog  Heavy snow  Heavy precipitations  Wind > 20 kt
SIGMETs :     Misc.  Thunderstorms  Icing  Turbulence  Mountain Waves  Volcanic Ashes






- Airport Elevation : 461 ft
- IATA code : WIE


ETOU - Wiesbaden Army

CURRENT METAR :
  • 211656Z AUTO 17008KT 9999 SCT049 OVC060 07/03 A2945 RMK AO2 SLP979 T00680034

EXPIRED METARs :
  • 211556Z AUTO 19006KT 9999 FEW065 OVC170 07/02 A2947 RMK AO2 SLP986 T00680019
  • 211456Z AUTO 25007KT 9999 SCT180 08/02 A2948 RMK AO2 SLP989 T00780016 55006

TAF TAF ETOU
Valid from the 20 at 13:00 until the 21 at 19:00 UTC


201305Z 2013/2119 15009KT 9999 SCT030 BKN120 QNH2961INS
BECMG 2017/2018 18008KT 9999 FEW030 SCT120 QNH2955INS
BECMG 2105/2106 19015G25KT 8000 -RA FEW010 BKN020 620208 510006 QNH2945INS
BECMG 2108/2109 22020G30KT 8000 -RA FEW010 BKN015 620158 510006 QNH2945INS
BECMG 2111/2112 23012G18KT 9999 NSW SCT030 QNH2940INS
BECMG 2117/2118 19015G25KT 5000 RA BKN015 620158 510006 QNH2938INS TX07/2112Z TN04/2021Z



MET'MAP, your aeronautical weather chart ! - Copyright ORBIFLY December 2007 - Disclaimer

ORBIFLY MET'MAP TEAM :

Programming & Development : Alexandra Zaïnal
Concept & original design : Baudouin d'Aumeries
Assistance for programming : Marc-Olivier Méhu
Technical & hardware support : Manuel Goepfert

Contact : metmap@orbifly.com




SOURCES & CREDITS :

   NOAA